CheckWX is a tool to help pilots better visualize weather data.  It is not intended as a substitute for an official pre-flight weather briefing.

17:03:19 UTC

KAIZ METAR
Lee C Fine Memorial Airport
Kaiser/Lake Ozark, Missouri, USA
Current

7 mins ago

KAIZ 161656Z AUTO 24009KT 10SM CLR 31/22 A3013 RMK AO2 SLP195 T03110217
Observed
Sep-16 @ 16:56 UTC
Wind
  • 240° at 9 KTS
Visibility
10 SM
Flight Rules
VFR
Cloud Levels
  • Clear skies
Temperature
31°C / 88°F
Dewpoint
22°C / 72°F
Heat Index
35°C / 95°F
Humidity
59%
Altimeter
30.13" Hg
Pressure
1020.32 hPa
Previous

1 hour ago

KAIZ 161556Z AUTO 26004KT 10SM CLR 29/22 A3015 RMK AO2 SLP197 T02940217
Observed
Sep-16 @ 15:56 UTC
Wind
  • 260° at 4 KTS
Visibility
10 SM
Flight Rules
VFR
Cloud Levels
  • Clear skies
Temperature
29°C / 84°F
Dewpoint
22°C / 72°F
Heat Index
32°C / 89°F
Humidity
66%
Altimeter
30.15" Hg
Pressure
1021.02 hPa
Previous

2 hours ago

KAIZ 161456Z AUTO 17003KT 10SM CLR 26/21 A3015 RMK AO2 SLP200 T02610211 51007
Observed
Sep-16 @ 14:56 UTC
Wind
  • 170° at 3 KTS
Visibility
10 SM
Flight Rules
VFR
Cloud Levels
  • Clear skies
Temperature
26°C / 79°F
Dewpoint
21°C / 70°F
Humidity
74%
Altimeter
30.15" Hg
Pressure
1021.02 hPa